Time;durP1;ratioP1;P1;durP2;ratioP2;P2;SDS_P1;SDS_P2;PMS_P1;PMS_P2;Temp;Humidity;BMP_temperature;BMP_pressure;BME280_temperature;BME280_humidity;BME280_pressure;Samples;Min_cycle;Max_cycle;Signal;HPM_P1;HPM_P2
2024/03/24 00:01:48;;;;;;;13.55;4.05;;;16.20;90.30;;;;;;5072309;28;20041;-73
2024/03/24 00:04:14;;;;;;;12.43;4.53;;;16.20;90.30;;;;;;5072532;28;20044;-73
2024/03/24 00:06:40;;;;;;;7.60;3.53;;;16.10;90.30;;;;;;5072155;28;20176;-72
2024/03/24 00:09:06;;;;;;;8.40;3.47;;;16.10;90.30;;;;;;5072290;28;20487;-71
2024/03/24 00:11:32;;;;;;;11.60;3.92;;;16.10;90.40;;;;;;5072034;28;20032;-72
2024/03/24 00:13:58;;;;;;;10.63;3.65;;;16.10;90.40;;;;;;5072306;28;20029;-73
2024/03/24 00:16:25;;;;;;;11.18;3.80;;;16.10;90.30;;;;;;5071906;28;20028;-73
2024/03/24 00:18:50;;;;;;;10.93;4.10;;;16.10;90.30;;;;;;5071886;28;20044;-73
2024/03/24 00:21:16;;;;;;;10.25;3.63;;;16.10;90.30;;;;;;5054096;28;20483;-72
2024/03/24 00:23:42;;;;;;;9.68;3.60;;;16.20;90.30;;;;;;5071883;28;20099;-73
2024/03/24 00:26:07;;;;;;;8.93;3.80;;;16.20;90.30;;;;;;5071978;28;20033;-72
2024/03/24 00:28:35;;;;;;;10.27;3.67;;;16.10;90.10;;;;;;5053988;28;20043;-73
2024/03/24 00:31:01;;;;;;;9.55;3.65;;;16.20;90.20;;;;;;5071891;28;20392;-71
2024/03/24 00:33:26;;;;;;;11.20;4.03;;;16.20;90.20;;;;;;5053800;28;20033;-73
2024/03/24 00:35:52;;;;;;;13.75;4.32;;;16.20;90.10;;;;;;5071813;28;20428;-71
2024/03/24 00:38:18;;;;;;;9.68;3.30;;;16.20;90.00;;;;;;5071839;28;20044;-72
2024/03/24 00:40:43;;;;;;;10.43;3.65;;;16.20;90.00;;;;;;5071686;28;20039;-70
2024/03/24 00:43:09;;;;;;;10.60;3.65;;;16.20;90.10;;;;;;5071838;28;20036;-72
2024/03/24 00:45:35;;;;;;;10.93;3.88;;;16.20;90.10;;;;;;5071387;28;20059;-71
2024/03/24 00:48:01;;;;;;;10.18;3.38;;;16.20;90.10;;;;;;5071576;28;20115;-72
2024/03/24 00:50:26;;;;;;;10.38;4.13;;;16.20;90.00;;;;;;5071699;28;20063;-71
2024/03/24 00:52:52;;;;;;;10.85;3.75;;;16.20;90.00;;;;;;5071667;28;20439;-71
2024/03/24 00:55:18;;;;;;;14.18;4.22;;;16.20;90.00;;;;;;5071716;28;20067;-71
2024/03/24 00:57:43;;;;;;;11.75;3.47;;;16.20;90.00;;;;;;5071576;28;20058;-72
2024/03/24 01:00:09;;;;;;;10.38;3.53;;;16.30;90.00;;;;;;5071787;28;20111;-70
2024/03/24 01:02:35;;;;;;;11.48;3.70;;;16.20;90.00;;;;;;5073383;28;20066;-72
2024/03/24 01:05:01;;;;;;;10.43;3.75;;;16.30;90.20;;;;;;5075147;28;20036;-71
2024/03/24 01:07:29;;;;;;;8.73;3.83;;;16.20;90.10;;;;;;5076013;28;20411;-71
2024/03/24 01:09:55;;;;;;;11.07;3.95;;;16.30;90.20;;;;;;5075384;28;20108;-71
2024/03/24 01:12:23;;;;;;;8.82;3.65;;;16.30;90.20;;;;;;5075006;28;20064;-71
2024/03/24 01:14:49;;;;;;;9.95;4.10;;;16.20;90.20;;;;;;5082030;28;20279;-72
2024/03/24 01:17:15;;;;;;;10.27;3.58;;;16.10;90.30;;;;;;5095353;28;20036;-72
2024/03/24 01:19:40;;;;;;;10.18;3.88;;;16.10;90.40;;;;;;5095091;28;20036;-71
2024/03/24 01:22:06;;;;;;;11.40;3.95;;;16.10;90.40;;;;;;5095106;28;20068;-71
2024/03/24 01:24:32;;;;;;;11.63;4.00;;;16.10;90.40;;;;;;5095077;28;20491;-72
2024/03/24 01:26:58;;;;;;;12.15;4.15;;;16.10;90.40;;;;;;5095324;28;20107;-71
2024/03/24 01:29:24;;;;;;;10.07;4.13;;;16.20;90.40;;;;;;5094937;28;20059;-72
2024/03/24 01:31:50;;;;;;;12.98;3.75;;;16.20;90.40;;;;;;5094852;28;20039;-72
2024/03/24 01:34:15;;;;;;;10.85;4.15;;;16.20;90.40;;;;;;5094975;28;20028;-71
2024/03/24 01:36:41;;;;;;;10.60;4.07;;;16.20;90.40;;;;;;5094651;28;20077;-71
2024/03/24 01:39:09;;;;;;;10.75;4.35;;;16.20;90.50;;;;;;5094663;28;20040;-72
2024/03/24 01:41:38;;;;;;;10.25;4.18;;;16.20;90.50;;;;;;5076880;28;20074;-71
2024/03/24 01:44:04;;;;;;;12.95;4.07;;;16.20;90.50;;;;;;5094712;28;20028;-71
2024/03/24 01:46:30;;;;;;;10.65;3.90;;;16.20;90.60;;;;;;5094695;28;20024;-71
2024/03/24 01:48:55;;;;;;;11.98;3.92;;;16.20;90.60;;;;;;5094310;28;20046;-72
2024/03/24 01:51:23;;;;;;;9.15;4.50;;;16.20;90.60;;;;;;5094680;28;20032;-71
2024/03/24 01:53:50;;;;;;;11.38;3.95;;;16.20;90.60;;;;;;5094333;28;20420;-71
2024/03/24 01:56:16;;;;;;;11.15;4.05;;;16.20;90.70;;;;;;5094352;28;20103;-72
2024/03/24 01:58:42;;;;;;;8.70;3.90;;;16.20;90.70;;;;;;5094133;28;20093;-70
2024/03/24 02:01:08;;;;;;;12.48;4.30;;;16.10;90.80;;;;;;5094318;28;20032;-72
2024/03/24 02:03:37;;;;;;;11.15;4.47;;;16.10;90.80;;;;;;5094208;28;20134;-71
2024/03/24 02:06:04;;;;;;;11.98;4.15;;;16.10;90.90;;;;;;5093975;28;20028;-71
2024/03/24 02:08:31;;;;;;;7.38;4.13;;;16.10;90.90;;;;;;5094635;28;20036;-71
2024/03/24 02:11:00;;;;;;;9.38;4.63;;;16.10;90.90;;;;;;5094118;28;20400;-71
2024/03/24 02:13:26;;;;;;;10.55;4.30;;;16.10;90.90;;;;;;5093522;28;20042;-71
2024/03/24 02:15:52;;;;;;;10.10;4.15;;;16.10;90.90;;;;;;5094028;28;20032;-71
2024/03/24 02:18:18;;;;;;;13.52;4.20;;;16.10;91.00;;;;;;5094003;28;20556;-72
2024/03/24 02:20:44;;;;;;;12.05;4.72;;;16.00;91.00;;;;;;5094165;28;20055;-71
2024/03/24 02:23:10;;;;;;;11.98;4.28;;;16.10;91.00;;;;;;5094081;28;20036;-72
2024/03/24 02:25:36;;;;;;;10.07;4.20;;;16.10;91.10;;;;;;5094055;28;20029;-71
2024/03/24 02:28:02;;;;;;;11.45;4.15;;;16.10;91.10;;;;;;5093965;28;20043;-71
2024/03/24 02:30:28;;;;;;;10.68;3.72;;;16.00;90.90;;;;;;5093958;28;20051;-71
2024/03/24 02:32:54;;;;;;;14.80;4.30;;;16.00;91.10;;;;;;5093704;28;20487;-71
2024/03/24 02:35:20;;;;;;;13.30;4.43;;;15.90;91.20;;;;;;5093655;28;20047;-71
2024/03/24 02:37:45;;;;;;;14.20;4.18;;;15.90;91.20;;;;;;5093779;28;20035;-71
2024/03/24 02:40:11;;;;;;;13.48;4.53;;;15.90;91.20;;;;;;5093574;28;20426;-71
2024/03/24 02:42:37;;;;;;;11.30;4.32;;;15.90;91.20;;;;;;5093727;28;20418;-72
2024/03/24 02:45:05;;;;;;;11.48;4.32;;;15.90;91.30;;;;;;5093632;28;20507;-74
2024/03/24 02:47:31;;;;;;;10.38;4.18;;;15.90;91.30;;;;;;5094145;28;20557;-71
2024/03/24 02:50:01;;;;;;;9.48;4.13;;;15.90;91.30;;;;;;5094087;28;20032;-70
2024/03/24 02:52:26;;;;;;;14.38;4.68;;;15.90;91.20;;;;;;5093274;28;20036;-72
2024/03/24 02:54:52;;;;;;;12.55;4.60;;;15.90;91.40;;;;;;5093241;28;20387;-71
2024/03/24 02:57:18;;;;;;;11.65;4.32;;;15.90;91.30;;;;;;5075206;28;20049;-70
2024/03/24 02:59:44;;;;;;;12.27;4.85;;;15.90;91.30;;;;;;5093253;28;20075;-71
2024/03/24 03:02:10;;;;;;;12.13;4.60;;;15.90;91.30;;;;;;5093103;28;20052;-71
2024/03/24 03:04:36;;;;;;;12.63;4.20;;;15.90;91.40;;;;;;5092908;28;20036;-71
2024/03/24 03:07:02;;;;;;;12.00;4.38;;;15.80;91.30;;;;;;5093067;28;20094;-71
2024/03/24 03:09:27;;;;;;;13.20;4.43;;;15.80;91.40;;;;;;5093096;28;20029;-71
2024/03/24 03:11:53;;;;;;;11.98;4.43;;;15.80;91.40;;;;;;5092800;28;20036;-71
2024/03/24 03:14:20;;;;;;;12.00;4.30;;;15.80;91.50;;;;;;5092935;28;20391;-71
2024/03/24 03:16:46;;;;;;;9.75;4.18;;;15.70;91.40;;;;;;5074508;28;20119;-70
2024/03/24 03:19:11;;;;;;;10.25;4.10;;;15.70;91.50;;;;;;5074418;28;20181;-72
2024/03/24 03:21:37;;;;;;;11.88;4.57;;;15.70;91.50;;;;;;5095344;28;20032;-71
2024/03/24 03:24:03;;;;;;;10.02;4.50;;;15.60;91.50;;;;;;5093412;28;20115;-72
2024/03/24 03:26:29;;;;;;;12.13;4.93;;;15.60;91.60;;;;;;5092006;28;20024;-70
2024/03/24 03:28:55;;;;;;;11.80;4.82;;;15.60;91.60;;;;;;5092653;28;20042;-72
2024/03/24 03:31:21;;;;;;;12.90;4.90;;;15.60;91.70;;;;;;5092559;28;20350;-70
2024/03/24 03:33:46;;;;;;;14.18;5.10;;;15.50;91.60;;;;;;5092772;28;20043;-72
2024/03/24 03:36:12;;;;;;;14.02;5.35;;;15.60;91.80;;;;;;5092930;28;20069;-71
2024/03/24 03:38:38;;;;;;;11.60;5.50;;;15.60;91.60;;;;;;5092622;28;20040;-71
2024/03/24 03:41:05;;;;;;;13.60;5.22;;;15.60;91.70;;;;;;5092943;28;20069;-71
2024/03/24 03:43:31;;;;;;;11.10;4.47;;;15.60;91.50;;;;;;5092526;28;20047;-71
2024/03/24 03:45:57;;;;;;;11.48;5.05;;;15.70;91.60;;;;;;5092468;28;20094;-70
2024/03/24 03:48:23;;;;;;;13.43;4.75;;;15.70;91.50;;;;;;5093373;28;20072;-72
2024/03/24 03:50:49;;;;;;;12.68;4.93;;;15.70;91.50;;;;;;5093283;28;20028;-71
2024/03/24 03:53:21;;;;;;;12.40;5.32;;;15.70;91.50;;;;;;5092534;28;20032;-71
2024/03/24 03:55:50;;;;;;;8.68;4.55;;;15.70;91.50;;;;;;5092323;28;20067;-72
2024/03/24 03:58:19;;;;;;;16.70;4.88;;;15.70;91.60;;;;;;5092106;28;20051;-71
2024/03/24 04:00:45;;;;;;;14.15;5.15;;;15.70;91.70;;;;;;5092289;28;20166;-71
2024/03/24 04:03:12;;;;;;;23.55;5.10;;;15.70;91.70;;;;;;5092332;28;20139;-72
2024/03/24 04:05:38;;;;;;;10.07;4.75;;;15.60;91.80;;;;;;5092434;28;20032;-71
2024/03/24 04:08:04;;;;;;;13.68;4.93;;;15.60;91.80;;;;;;5073837;28;20089;-71
2024/03/24 04:10:30;;;;;;;9.00;4.68;;;15.60;91.80;;;;;;5092252;28;20039;-71
2024/03/24 04:12:56;;;;;;;12.43;4.95;;;15.60;91.90;;;;;;5092147;28;20058;-71
2024/03/24 04:15:22;;;;;;;15.50;5.50;;;15.50;92.00;;;;;;5091959;28;20418;-71
2024/03/24 04:17:47;;;;;;;12.68;5.45;;;15.50;92.00;;;;;;5102276;22;20052;-70
2024/03/24 04:20:14;;;;;;;12.77;5.22;;;15.50;92.10;;;;;;5092131;28;20098;-71
2024/03/24 04:22:40;;;;;;;13.32;4.75;;;15.40;92.10;;;;;;5092085;28;20367;-70
2024/03/24 04:25:06;;;;;;;15.40;5.57;;;15.40;92.20;;;;;;5092106;28;20032;-71
2024/03/24 04:27:32;;;;;;;13.90;5.20;;;15.40;92.20;;;;;;5092000;28;20479;-69
2024/03/24 04:29:58;;;;;;;17.20;5.70;;;15.40;92.20;;;;;;5091727;28;20024;-70
2024/03/24 04:32:25;;;;;;;16.60;5.22;;;15.40;92.20;;;;;;5091750;28;20062;-70
2024/03/24 04:34:50;;;;;;;12.48;5.78;;;15.40;92.20;;;;;;5091775;28;20193;-70
2024/03/24 04:37:16;;;;;;;13.55;5.43;;;15.40;92.30;;;;;;5093242;28;20071;-70
2024/03/24 04:39:42;;;;;;;15.02;4.82;;;15.30;92.30;;;;;;5095700;28;20683;-71
2024/03/24 04:42:08;;;;;;;15.43;5.60;;;15.30;92.30;;;;;;5095532;28;20526;-71
2024/03/24 04:44:33;;;;;;;17.92;6.43;;;15.30;92.40;;;;;;5095697;28;20115;-69
2024/03/24 04:46:59;;;;;;;16.88;5.75;;;15.30;92.50;;;;;;5095657;28;20479;-69
2024/03/24 04:49:25;;;;;;;14.27;5.32;;;15.20;92.50;;;;;;5095548;28;20036;-69
2024/03/24 04:51:50;;;;;;;16.38;5.50;;;15.20;92.60;;;;;;5095568;28;20035;-71
2024/03/24 04:54:16;;;;;;;15.77;6.03;;;15.20;92.70;;;;;;5095902;28;20410;-70
2024/03/24 04:56:42;;;;;;;22.73;5.93;;;15.20;92.60;;;;;;5095322;28;20110;-70
2024/03/24 04:59:08;;;;;;;13.30;5.03;;;15.20;92.50;;;;;;5095187;28;20082;-68
2024/03/24 05:01:33;;;;;;;14.57;6.05;;;15.20;92.60;;;;;;5093614;28;20075;-70
2024/03/24 05:04:00;;;;;;;14.20;5.57;;;15.10;92.60;;;;;;5095142;28;20046;-70
2024/03/24 05:06:27;;;;;;;16.60;5.57;;;15.10;92.60;;;;;;5095140;28;20052;-70
2024/03/24 05:08:53;;;;;;;20.00;5.72;;;15.10;92.60;;;;;;5094899;28;20051;-70
2024/03/24 05:11:19;;;;;;;17.45;5.75;;;15.10;92.70;;;;;;5095294;28;20028;-71
2024/03/24 05:13:47;;;;;;;16.65;5.38;;;15.10;92.70;;;;;;5095215;28;20064;-70
2024/03/24 05:16:13;;;;;;;16.30;5.70;;;15.10;92.70;;;;;;5095067;28;20036;-70
2024/03/24 05:18:39;;;;;;;17.90;5.47;;;15.10;92.70;;;;;;5094663;28;20116;-70
2024/03/24 05:21:05;;;;;;;13.13;5.63;;;15.10;92.70;;;;;;5095019;28;20100;-71
2024/03/24 05:23:31;;;;;;;17.05;5.45;;;15.10;92.70;;;;;;5095036;28;20024;-70
2024/03/24 05:25:57;;;;;;;15.55;5.30;;;15.20;92.70;;;;;;5094993;28;20161;-71
2024/03/24 05:28:23;;;;;;;20.85;5.72;;;15.20;92.70;;;;;;5094681;28;20090;-71
2024/03/24 05:30:52;;;;;;;21.35;5.97;;;15.20;92.50;;;;;;5094796;28;20518;-70
2024/03/24 05:33:18;;;;;;;16.70;5.50;;;15.20;92.50;;;;;;5094929;28;20036;-71
2024/03/24 05:35:44;;;;;;;15.20;5.40;;;15.30;92.60;;;;;;5094800;28;20103;-71
2024/03/24 05:38:10;;;;;;;14.57;5.55;;;15.30;92.50;;;;;;5076135;28;20078;-69
2024/03/24 05:40:36;;;;;;;16.95;5.78;;;15.30;92.40;;;;;;5094896;28;20028;-71
2024/03/24 05:43:02;;;;;;;18.65;6.10;;;15.30;92.40;;;;;;5094411;28;20411;-70
2024/03/24 05:45:28;;;;;;;21.75;6.25;;;15.40;92.40;;;;;;5094710;28;20373;-70
2024/03/24 05:47:53;;;;;;;17.08;6.13;;;15.40;92.30;;;;;;5075929;28;20406;-70
2024/03/24 05:50:19;;;;;;;18.58;5.57;;;15.40;92.30;;;;;;5093986;28;20040;-69
2024/03/24 05:52:45;;;;;;;22.77;5.50;;;15.50;92.20;;;;;;5094559;28;20036;-70
2024/03/24 05:55:12;;;;;;;16.33;5.47;;;15.50;92.10;;;;;;5094289;28;20115;-71
2024/03/24 05:57:38;;;;;;;16.02;5.20;;;15.60;92.00;;;;;;5094219;28;20109;-72
2024/03/24 06:00:04;;;;;;;18.10;5.57;;;15.70;91.90;;;;;;5094462;28;20040;-71
2024/03/24 06:02:30;;;;;;;24.42;5.70;;;15.90;91.80;;;;;;5094315;28;20059;-71
2024/03/24 06:04:56;;;;;;;19.55;5.63;;;16.00;91.60;;;;;;5094430;28;20032;-71
2024/03/24 06:07:22;;;;;;;16.73;5.25;;;16.20;91.50;;;;;;5094146;28;20039;-72
2024/03/24 06:09:49;;;;;;;23.95;6.63;;;16.30;91.30;;;;;;5094209;28;20024;-71
2024/03/24 06:12:15;;;;;;;21.80;6.30;;;16.40;91.10;;;;;;5094311;28;20032;-70
2024/03/24 06:14:41;;;;;;;19.30;6.03;;;16.50;91.10;;;;;;5093945;28;20055;-71
2024/03/24 06:17:09;;;;;;;25.42;6.68;;;16.50;90.80;;;;;;5094149;28;20101;-71
2024/03/24 06:19:35;;;;;;;19.40;5.90;;;16.60;90.80;;;;;;5093710;28;20044;-71
2024/03/24 06:22:01;;;;;;;20.60;6.75;;;16.70;91.00;;;;;;5093602;28;20468;-69
2024/03/24 06:24:26;;;;;;;18.83;5.93;;;16.70;90.60;;;;;;5093985;28;20032;-70
2024/03/24 06:26:52;;;;;;;19.33;5.40;;;16.60;90.60;;;;;;5093233;28;20024;-71
2024/03/24 06:29:18;;;;;;;22.20;5.75;;;16.60;90.60;;;;;;5093774;28;20042;-70
2024/03/24 06:31:43;;;;;;;19.40;5.72;;;16.60;90.60;;;;;;5093768;28;20107;-71
2024/03/24 06:34:09;;;;;;;19.13;5.63;;;16.60;90.60;;;;;;5093627;28;20067;-71
2024/03/24 06:36:37;;;;;;;20.38;6.28;;;16.50;90.60;;;;;;5093564;28;20033;-70
2024/03/24 06:39:09;;;;;;;22.08;5.72;;;16.50;90.70;;;;;;5093275;28;20043;-72
2024/03/24 06:41:43;;;;;;;20.70;6.03;;;16.50;90.50;;;;;;5093413;28;20085;-70
2024/03/24 06:44:18;;;;;;;24.25;5.97;;;16.50;90.50;;;;;;5093365;28;20043;-71
2024/03/24 06:46:44;;;;;;;24.77;5.97;;;16.40;90.60;;;;;;5093110;28;20032;-70
2024/03/24 06:49:10;;;;;;;27.17;6.78;;;16.40;90.50;;;;;;5093079;28;20131;-71
2024/03/24 06:51:36;;;;;;;23.08;5.63;;;16.40;90.50;;;;;;5092855;28;20028;-70
2024/03/24 06:54:03;;;;;;;23.20;5.72;;;16.40;90.50;;;;;;5093243;28;20115;-71
2024/03/24 06:56:29;;;;;;;26.33;6.20;;;16.50;90.40;;;;;;5093044;28;20481;-71
2024/03/24 06:58:54;;;;;;;19.98;5.18;;;16.50;90.30;;;;;;5092774;28;20526;-71
2024/03/24 07:01:20;;;;;;;18.73;5.55;;;16.50;90.30;;;;;;5092966;28;20059;-70
2024/03/24 07:03:46;;;;;;;26.13;6.78;;;16.60;90.20;;;;;;5093100;28;20032;-71
2024/03/24 07:06:14;;;;;;;26.45;5.55;;;16.60;90.10;;;;;;5093100;28;20044;-70
2024/03/24 07:08:43;;;;;;;22.27;6.38;;;16.70;89.90;;;;;;5092293;28;20032;-70
2024/03/24 07:11:09;;;;;;;26.30;6.45;;;16.70;89.80;;;;;;5092665;28;20027;-71
2024/03/24 07:13:35;;;;;;;22.05;6.28;;;16.80;89.80;;;;;;5092927;28;20032;-70
2024/03/24 07:16:01;;;;;;;26.15;5.75;;;16.70;89.50;;;;;;5092840;28;20047;-70
2024/03/24 07:18:26;;;;;;;24.33;7.03;;;16.80;89.40;;;;;;5092684;28;20091;-72
2024/03/24 07:20:59;;;;;;;24.65;7.28;;;16.80;89.00;;;;;;5092800;28;20032;-71
2024/03/24 07:23:25;;;;;;;26.25;6.03;;;16.80;89.00;;;;;;5092098;28;20078;-71
2024/03/24 07:25:51;;;;;;;17.67;5.72;;;16.80;88.80;;;;;;5092633;28;20116;-70
2024/03/24 07:28:17;;;;;;;15.82;5.18;;;16.90;88.40;;;;;;5092945;28;20438;-70
2024/03/24 07:30:43;;;;;;;24.17;5.82;;;17.10;87.90;;;;;;5092670;28;20032;-70
2024/03/24 07:33:09;;;;;;;20.88;5.57;;;17.50;86.70;;;;;;5092748;28;20105;-71
2024/03/24 07:35:35;;;;;;;29.10;6.00;;;17.60;86.00;;;;;;5092372;28;20036;-70
2024/03/24 07:38:00;;;;;;;21.13;5.55;;;17.70;85.60;;;;;;5092687;28;20040;-71
2024/03/24 07:40:26;;;;;;;26.52;5.68;;;17.70;85.40;;;;;;5092501;28;20035;-71
2024/03/24 07:42:52;;;;;;;25.23;5.15;;;17.80;85.30;;;;;;5092583;28;20039;-71
2024/03/24 07:45:17;;;;;;;24.45;5.95;;;17.90;84.90;;;;;;5092410;28;20035;-71
2024/03/24 07:47:43;;;;;;;20.05;5.50;;;18.00;84.60;;;;;;5074007;28;20410;-70
2024/03/24 07:50:09;;;;;;;23.48;6.28;;;18.00;84.50;;;;;;5092308;28;20039;-71
2024/03/24 07:52:34;;;;;;;26.80;5.75;;;18.00;84.30;;;;;;5092386;28;20040;-70
2024/03/24 07:55:00;;;;;;;25.17;6.25;;;18.00;84.00;;;;;;5092408;28;20085;-72
2024/03/24 07:57:26;;;;;;;25.85;4.95;;;18.00;84.10;;;;;;5091879;28;20116;-71
2024/03/24 07:59:53;;;;;;;25.08;5.53;;;17.90;83.90;;;;;;5092034;28;20047;-71
2024/03/24 08:02:18;;;;;;;18.83;4.97;;;17.90;84.00;;;;;;5092634;28;20099;-72
2024/03/24 08:04:44;;;;;;;28.13;6.03;;;17.90;83.90;;;;;;5092562;28;20508;-71
2024/03/24 08:07:10;;;;;;;22.38;5.05;;;17.80;83.90;;;;;;5092017;28;20032;-71
2024/03/24 08:09:35;;;;;;;21.73;5.45;;;17.70;83.70;;;;;;5092322;28;20386;-71
2024/03/24 08:12:01;;;;;;;21.95;5.20;;;17.60;84.10;;;;;;5091805;28;20510;-71
2024/03/24 08:14:26;;;;;;;19.50;5.50;;;17.60;84.30;;;;;;5091795;28;20102;-71
2024/03/24 08:16:54;;;;;;;26.90;6.18;;;17.70;84.90;;;;;;5091619;28;20051;-71
2024/03/24 08:19:20;;;;;;;20.23;5.93;;;17.60;84.30;;;;;;5091608;28;20491;-71
2024/03/24 08:21:47;;;;;;;21.08;5.82;;;17.70;84.40;;;;;;5091828;28;20581;-71
2024/03/24 08:24:12;;;;;;;22.08;5.97;;;17.70;84.30;;;;;;5092015;28;20040;-71
2024/03/24 08:26:39;;;;;;;30.73;8.40;;;17.70;84.20;;;;;;5092063;28;20028;-72
2024/03/24 08:29:05;;;;;;;25.75;7.90;;;17.80;84.20;;;;;;5091728;28;20036;-71
2024/03/24 08:31:31;;;;;;;23.33;5.82;;;17.90;84.00;;;;;;5091821;28;20036;-71
2024/03/24 08:33:57;;;;;;;26.15;5.68;;;17.90;83.80;;;;;;5091808;28;20043;-70
2024/03/24 08:36:23;;;;;;;22.20;5.43;;;18.00;83.60;;;;;;5091799;28;20090;-71
2024/03/24 08:38:49;;;;;;;19.25;5.47;;;18.10;83.30;;;;;;5091541;28;20447;-71
2024/03/24 08:41:15;;;;;;;27.02;6.45;;;18.30;83.20;;;;;;5091844;28;20028;-70
2024/03/24 08:43:40;;;;;;;29.63;7.95;;;18.40;82.90;;;;;;5091729;28;20036;-71
2024/03/24 08:46:06;;;;;;;31.75;6.30;;;18.50;82.50;;;;;;5091917;28;20111;-72
2024/03/24 08:48:32;;;;;;;23.48;5.40;;;18.50;82.40;;;;;;5091558;28;20028;-72
2024/03/24 08:50:57;;;;;;;23.02;6.28;;;18.60;82.20;;;;;;5091638;28;20032;-69
2024/03/24 08:53:23;;;;;;;34.03;6.95;;;18.70;81.90;;;;;;5091926;28;20032;-71
2024/03/24 08:55:49;;;;;;;22.63;5.60;;;18.80;81.60;;;;;;5091706;28;20110;-71
2024/03/24 08:58:14;;;;;;;31.75;7.55;;;18.80;81.20;;;;;;5091054;28;20046;-71
2024/03/24 09:00:40;;;;;;;20.33;4.82;;;18.90;81.00;;;;;;5091755;28;20024;-72
2024/03/24 09:03:06;;;;;;;22.30;5.63;;;19.00;80.80;;;;;;5091575;28;20028;-71
2024/03/24 09:05:34;;;;;;;27.98;5.82;;;19.00;80.50;;;;;;5073478;28;20028;-71
2024/03/24 09:08:00;;;;;;;27.33;5.95;;;19.20;80.40;;;;;;5073428;28;20040;-72
2024/03/24 09:10:26;;;;;;;26.60;6.53;;;19.40;80.00;;;;;;5091631;28;20032;-71
2024/03/24 09:12:51;;;;;;;30.75;6.35;;;19.50;79.20;;;;;;5091399;28;20443;-71
2024/03/24 09:15:19;;;;;;;25.83;5.20;;;19.50;78.30;;;;;;5091439;28;20094;-72
2024/03/24 09:17:45;;;;;;;29.40;5.65;;;19.50;77.70;;;;;;5091401;28;20067;-72
2024/03/24 09:20:10;;;;;;;28.95;6.75;;;19.70;77.60;;;;;;5091901;28;20466;-70
2024/03/24 09:22:36;;;;;;;35.58;6.28;;;19.80;77.60;;;;;;5091195;28;20055;-71
2024/03/24 09:25:02;;;;;;;27.45;7.10;;;19.80;76.40;;;;;;5093797;28;20093;-69
2024/03/24 09:27:28;;;;;;;27.98;6.28;;;19.80;76.30;;;;;;5094940;28;20038;-71
2024/03/24 09:29:53;;;;;;;24.60;5.80;;;19.70;75.70;;;;;;5094836;28;20032;-71
2024/03/24 09:32:19;;;;;;;34.35;6.43;;;19.60;75.60;;;;;;5094757;28;20036;-71
2024/03/24 09:34:45;;;;;;;31.10;5.95;;;19.50;75.30;;;;;;5094592;28;20036;-72
2024/03/24 09:37:12;;;;;;;28.90;6.05;;;19.50;75.40;;;;;;5094896;28;20436;-71
2024/03/24 09:39:37;;;;;;;22.30;5.45;;;19.40;75.20;;;;;;5094835;28;20115;-71
2024/03/24 09:42:04;;;;;;;25.83;6.13;;;19.50;74.80;;;;;;5094737;28;20107;-72
2024/03/24 09:44:32;;;;;;;26.58;5.80;;;19.70;74.70;;;;;;5094535;28;20117;-71
2024/03/24 09:46:59;;;;;;;32.20;6.22;;;19.80;74.00;;;;;;5094686;28;20472;-72
2024/03/24 09:49:26;;;;;;;28.85;5.75;;;19.80;73.40;;;;;;5094643;28;20111;-72
2024/03/24 09:51:53;;;;;;;25.60;5.65;;;19.80;72.80;;;;;;5094557;28;20551;-73
2024/03/24 09:54:19;;;;;;;29.30;6.43;;;19.80;72.60;;;;;;5076375;28;20441;-73
2024/03/24 09:56:46;;;;;;;29.10;6.10;;;19.80;73.20;;;;;;5094604;28;20036;-70
2024/03/24 09:59:11;;;;;;;26.38;5.97;;;19.90;72.60;;;;;;5094508;28;20028;-72
2024/03/24 10:01:38;;;;;;;30.85;7.00;;;20.00;72.20;;;;;;5094289;28;20111;-72
2024/03/24 10:04:07;;;;;;;29.50;6.30;;;20.00;71.90;;;;;;5094392;28;20040;-71
2024/03/24 10:06:34;;;;;;;23.95;6.18;;;20.00;72.30;;;;;;5094171;28;20462;-72
2024/03/24 10:09:00;;;;;;;28.63;6.55;;;20.00;71.50;;;;;;5093758;28;20036;-71
2024/03/24 10:11:31;;;;;;;29.85;6.57;;;20.00;71.40;;;;;;5093973;28;20027;-71
2024/03/24 10:13:59;;;;;;;27.73;7.47;;;20.10;71.30;;;;;;5094210;28;20487;-72
2024/03/24 10:16:25;;;;;;;25.75;6.45;;;20.00;71.10;;;;;;5094203;28;20118;-72
2024/03/24 10:18:52;;;;;;;31.92;7.03;;;20.10;71.30;;;;;;5075492;28;20127;-71
2024/03/24 10:21:18;;;;;;;30.52;6.43;;;20.10;70.90;;;;;;5093618;28;20162;-70
2024/03/24 10:23:44;;;;;;;28.92;6.75;;;20.10;70.80;;;;;;5093522;28;20142;-72
2024/03/24 10:26:17;;;;;;;33.67;6.97;;;20.30;70.90;;;;;;5093784;28;20042;-72
2024/03/24 10:28:43;;;;;;;34.47;6.97;;;20.30;70.50;;;;;;5093635;28;20462;-71
2024/03/24 10:31:09;;;;;;;28.85;5.88;;;20.20;70.60;;;;;;5093809;28;20051;-71
2024/03/24 10:33:41;;;;;;;29.17;5.90;;;20.10;70.30;;;;;;5093698;28;20043;-72
2024/03/24 10:36:09;;;;;;;24.02;6.15;;;20.00;70.60;;;;;;5093033;28;20111;-70
2024/03/24 10:38:39;;;;;;;25.33;6.05;;;20.00;70.40;;;;;;5093319;28;20484;-71
2024/03/24 10:41:06;;;;;;;36.78;6.47;;;20.00;70.10;;;;;;5093629;28;20039;-72
2024/03/24 10:43:33;;;;;;;28.33;5.93;;;20.00;69.80;;;;;;5093690;28;20467;-71
2024/03/24 10:45:59;;;;;;;23.90;5.45;;;19.90;70.00;;;;;;5093500;28;20027;-72
2024/03/24 10:48:32;;;;;;;27.88;6.50;;;19.90;70.20;;;;;;5093240;28;20492;-72
2024/03/24 10:51:00;;;;;;;30.38;7.05;;;19.90;70.50;;;;;;5093390;28;20400;-72
2024/03/24 10:53:27;;;;;;;29.88;6.63;;;20.00;70.70;;;;;;5093574;28;20032;-72
2024/03/24 10:55:56;;;;;;;27.73;6.30;;;20.00;70.80;;;;;;5093282;28;20521;-69
2024/03/24 10:58:22;;;;;;;26.08;6.85;;;20.00;70.50;;;;;;5092910;28;20105;-71
2024/03/24 11:00:49;;;;;;;30.65;6.95;;;20.00;70.60;;;;;;5093118;28;20032;-71
2024/03/24 11:03:17;;;;;;;28.88;5.63;;;20.00;70.40;;;;;;5092849;28;20028;-71
2024/03/24 11:05:47;;;;;;;20.77;6.00;;;20.10;70.60;;;;;;5092829;28;20385;-71
2024/03/24 11:08:14;;;;;;;25.75;5.65;;;20.10;69.90;;;;;;5092823;28;20107;-71
2024/03/24 11:11:01;;;;;;;28.23;5.97;;;20.10;69.80;;;;;;5092828;28;20028;-72
2024/03/24 11:13:30;;;;;;;28.10;6.53;;;20.20;69.90;;;;;;5093246;28;20078;-70
2024/03/24 11:15:59;;;;;;;25.45;5.65;;;20.30;69.80;;;;;;5074768;28;20090;-72
2024/03/24 11:18:26;;;;;;;27.90;5.30;;;20.30;69.60;;;;;;5092973;28;20131;-70
2024/03/24 11:20:57;;;;;;;26.85;5.93;;;20.50;69.30;;;;;;5093069;28;20036;-72
2024/03/24 11:23:33;;;;;;;24.95;5.57;;;20.50;68.70;;;;;;5074242;28;20052;-72
2024/03/24 11:26:02;;;;;;;28.17;6.20;;;20.50;68.40;;;;;;5092720;28;20376;-71
2024/03/24 11:28:43;;;;;;;28.00;5.43;;;20.40;68.00;;;;;;5092838;28;20063;-71
2024/03/24 11:31:20;;;;;;;26.88;5.78;;;20.40;68.40;;;;;;5092793;28;20028;-71
2024/03/24 11:34:08;;;;;;;25.90;5.25;;;20.50;68.60;;;;;;5092801;28;20028;-72
2024/03/24 11:36:39;;;;;;;29.48;6.38;;;20.50;68.20;;;;;;5074355;28;20028;-71
2024/03/24 11:39:07;;;;;;;26.63;6.03;;;20.50;68.10;;;;;;5092597;28;20037;-71
2024/03/24 11:41:35;;;;;;;23.98;6.10;;;20.50;68.10;;;;;;5092842;28;20078;-70
2024/03/24 11:44:06;;;;;;;21.95;5.75;;;20.50;68.20;;;;;;5092210;28;20051;-72
2024/03/24 11:46:35;;;;;;;23.20;6.18;;;20.50;67.90;;;;;;5092066;28;20095;-71
2024/03/24 11:49:02;;;;;;;27.85;6.07;;;20.50;68.10;;;;;;5092552;28;20032;-71
2024/03/24 11:51:30;;;;;;;27.77;5.70;;;20.60;67.80;;;;;;5092196;28;20043;-71
2024/03/24 11:53:57;;;;;;;30.98;6.82;;;20.60;67.90;;;;;;5092474;28;20434;-72
2024/03/24 11:56:24;;;;;;;34.65;6.60;;;20.60;67.80;;;;;;5092290;28;20024;-71
2024/03/24 11:58:55;;;;;;;29.92;6.72;;;20.60;68.10;;;;;;5092297;28;20040;-71
2024/03/24 12:01:22;;;;;;;27.08;6.35;;;20.70;68.10;;;;;;5092530;28;20487;-72
2024/03/24 12:03:49;;;;;;;31.75;6.18;;;20.70;68.20;;;;;;5092210;28;20120;-70
2024/03/24 12:06:16;;;;;;;33.92;6.65;;;20.70;68.00;;;;;;5092294;28;20556;-71
2024/03/24 12:08:44;;;;;;;25.90;6.22;;;20.80;68.20;;;;;;5092381;28;20071;-71
2024/03/24 12:11:09;;;;;;;27.63;5.85;;;20.90;68.00;;;;;;5092447;28;20028;-71
2024/03/24 12:13:36;;;;;;;27.65;6.22;;;20.90;68.10;;;;;;5092205;28;20111;-72
2024/03/24 12:16:05;;;;;;;28.67;6.55;;;20.90;68.30;;;;;;5092213;28;20128;-70
2024/03/24 12:18:31;;;;;;;27.58;5.80;;;20.90;68.20;;;;;;5092160;28;20097;-72
2024/03/24 12:21:00;;;;;;;27.73;5.72;;;20.90;67.80;;;;;;5092320;28;20427;-70
2024/03/24 12:23:26;;;;;;;29.63;6.18;;;21.00;67.60;;;;;;5092208;28;20336;-71
2024/03/24 12:25:53;;;;;;;27.58;5.82;;;20.90;67.90;;;;;;5092168;28;20372;-72
2024/03/24 12:28:20;;;;;;;35.45;7.55;;;20.90;68.00;;;;;;5092029;28;20119;-71
2024/03/24 12:30:50;;;;;;;24.67;5.57;;;21.00;67.80;;;;;;5091981;28;20891;-71
2024/03/24 12:33:26;;;;;;;21.70;5.68;;;21.10;67.70;;;;;;5091792;28;20025;-71
2024/03/24 12:35:54;;;;;;;25.73;6.95;;;21.10;68.00;;;;;;5092162;28;20089;-72